Hauptseite
METAR-TAF:

METAR-TAF

Flughäfen :

Chengdu, China

Flughafen Chengdu-Shuangliu

Breite: 30-40N, Länge: 104-01E, Höhe: 508 m

Beobachtung

Neuester Wetterbericht von vor 1 Stunde und 6 Minuten, um 23:00 UTC
Wind 2 kt aus Südwest
Temperatur 1°C
Luftfeuchtigkeit 100%
Luftdruck 1018 hPa
Sichtweite: 2500 m
feuchter Dunst

METAR: ZUUU 172300Z 23001MPS 2500 BR NSC 01/01 Q1018 NOSIG

Zeit: 08:06 (00:06 UTC)

Prognose

Neuester Wetterbericht von vor 4 Stunden und 5 Minuten, um 20:01 UTC
Gültige Prognose vom 18 um 00 UTC bis 18 um 24 UTC
Wind 6 kt aus Süd/Südwest
Sichtweite: 1900 m
Aufgelockert bewölkt in der Höhe von 5000 ft
feuchter Dunst
Übergehend zu
vom 18 um 03 UTC bis 18 um 04 UTC
Sichtweite: 3500 m

TAF: ZUUU 172001Z 1800/1824 20003MPS 1900 BR SCT050 TX13/1807Z TN03/1823Z BECMG 1803/1804 3500

Wetterbeobachtungen und Prognosen von mehr als 4000 Flughäfen (METAR und TAF Bericht).

Die verfügbaren Stationen werden durch gelbe und rote Markierungen auf der Karte dargestellt.

Führen Sie die Maus auf sie, um den Namen der Station zu sehen.

Darauf klicken, um die Beobachtung von Wetterbeobachtungen und Prognosen zu sehen.

Um die Karte zu ändern : klicken Sie auf den grünen Tasten mit einem schwarzen Kreuz Zum Vergrößern, auf den grünen Button mit einem Gedankenstrich zu verkleinern, oder auf die grünen Pfeile für benachbarte Karten.


METAR-TAF: